Terminal Aerodrome Forecast
Issued by NWS Twin Cities, MN

Home | Current Version | Previous Version | Graphics & Text | Print | Product List | Glossary On
Versions: 1 2 3 4 5 6 7 8 9 10 11 12 13 14 15 16
000
FTUS43 KMPX 131400 AAA
TAFSTC
TAF AMD
KSTC 131452Z 1315/1412 34015G25KT P6SM BKN015 OVC035
     FM132100 35019G26KT P6SM SCT020 BKN035 OVC050
     FM140100 35014G22KT P6SM BKN050
     FM140700 33013KT P6SM SCT050 BKN250=

USA.gov is the U.S. government's official web portal to all federal, state and local government web resources and services.